الصفحة الرئيسية
METAR-TAF:

METAR-TAF

مطار :

مطار دمشق الدولي

دمشق, سوريا

دائرة عرض: 33-25N, خط طول: 036-31E, ارتفاع: 608 متر

مراقبة الطقس الحالي

تاريخ ووقت الإصدار 54 دقيقة قبل الساعة 22:00UTC
ريح 14 عقدة من الجنوب/الجنوب الغربي
درجة الحرارة 22°درجة مئوية
الرطوبة 73%
ضغط 1010 hPa
الرؤية 10 كم أو أكثر
الغيوم لا تقل 1500 م ولا وجود لمزنة ركامية السحاب الأسود

METAR: OSDI 152200Z 21014KT CAVOK 22/17 Q1010

زمن: 01:54 (22:54 UTC)

توقعات

التوقعات صالحة من15 الساعة 18 UTC إلى 16 الساعة 24 UTC
ريح 10 عقدة من الجنوب الغربي
الرؤية 10 كم أو أكثر
الغيوم لا تقل 1500 م ولا وجود لمزنة ركامية السحاب الأسود
مؤقت
من 16 الساعة 12 UTC إلى 16 الساعة 18 UTC
ريح 15 عقدة من الغرب/الجنوب الغربي تتزايد حتى 25 عقدة
غيوم قليلة على ارتفاع 3000 قدم

TAF: OSDI 1518/1624 22010KT CAVOK TEMPO 1612/1618 24015G25KT 999 FEW030

أرصاد الطقس والتوقعات من أكثر من 4000 مطار (تقارير الطقس للمطار METAR والتنبؤ بالطقس بالمطارTAF).

المحطات المتاحة هي النقط الصفراء والحمراء على الخريطة.

حرك المؤشر فوق النقطة لمعرفة اسم المحطة.

ثم انقر لمعرفة أرصاد وتوقعات الطقس.

لتغيير الخارطة: اضغط على الأزرار الخضراء مع رمز الصليب الأسود للتكبير. على الزر الأخضر مع شرطة للتصغير، أو على الأسهم الخضراء للخرائط المجاورة.


METAR-TAF: